Evergem, Belgium
Current Conditions -  °F | °C
As of 8:25 AM on Sunday 23 Nov 2014 (Local Time) from EHFS Reporting Station
Clear Clear  
Wind Chill: 10°   Ceiling: Unl
Heat Index: 10°   Visibility: 6mi
Dew Point: 10°   Wind: 10mph
Humidity: 100%   Direction: 160°SSE
Pressure: 30"   Gusts: NA
Location:  51.11°N, 3.7°E
Report Text: EHFS 230725Z AUTO 16009KT 9000 NCD 10/10 Q1016
Loading
Personal Weather Stations






























Interactive Weather Map New forecast layout! Learn more

10-Day Weather Forecast

Advertisements
Track Severe Weather on mobile